Timeline UpdatesTrip UpdatesNews PostsPvt PostsTravel TipsAdmin PostsConv PostsFollowed PostsChat RequestsBlog PostsPNR Posts

Disclaimer
Search
 
 
Fri Aug 1, 2014 11:18:27 ISTHomeTrainsΣChainsAtlasPNRForumGalleryNewsFAQTripsMembersLoginFeedback
No Recent News for this Train
Other Trains in the News **new
Latest...
.
Tue Dec 31, 2013 (01:14PM)
⇐ Return Journey: Train# 11015

11016/Kushinagar Express

Dec 31 2013 (1:14PM)
Change Departure Station:
Change Arrival Station:
Post a Train Travel TipPost a Train Travel Tip **new
Post a Comment/Question/Picture/VideoPost a Comment/Question/Picture/Video
Pantry/Catering
✓ Pantry Car Avbl
✓ Catering Avbl
RSA - Rake Sharing
No RSA.
Rake/Coach Composition
Loco-SLR-GEN-S1-S2-S3-S4-S5-S6-S7-S8-S9-S10-S11-S12-PC-S13-S14-A1-B1-B2-GEN-GEN-SLR
Loco
(GKP-JHS) GD-WDM-3A (JHS-LTT) BSL-WAP-4 Entry# 970760
News    PNR    Forum    Time-Table    Availability    Fare Chart    Map    Arr/Dep History    Trips    Gallery    ΣChains    X/O    Timeline    
Travel Time: 3h 20m    3 halts    Distance: 183 km    Avg Speed: 54 km/hr
Type: Mail/Express
Zone: CR/Central
Departs @ 13:55 (Avg 2h 3m late)
Platform# 2
SMTWTFS
Itarsi Junction/ET 
Arrives @ 17:15 (Avg 1h 16m late)
Platform# 1
SMTWTFS
Khandwa Junction/KNW 

3 halts. 25 intermediate Stations between Itarsi Junction and Khandwa Junction

Show ALL intermediate Stations  Show Old Time-Table

#CodeStation NameX/OArrivesAvgDepartsAvgHaltPFDay#KmSpeedElevZoneAddress
1GKPGorakhpur Junction (10)  -19:00+1021-945.55784mNERGorakhpur 273001, Uttar Pradesh
2KLDKhalilabad (3)X  19:36+2719:38+282m11-911.65586mNERKhalilabad- 272175, Uttar Pradesh
3BSTBasti (4)X  20:10+2620:15+275m11-882.18090mNERBasti 272001, Uttar Pradesh
4BVBabhnan (2)  20:38+3320:40+352m11-851.356101mNERDistrict- Basti, Uttar Pradesh
5MURMankapur Junction (5)  21:12+3021:14+302m21-821.564104mNERDistrict Gonda, Uttar Pradesh
6GDGonda Junction (3)X  21:40+3021:45+325m11-793.652110mNERGonda 271001, Uttar Pradesh
7BBKBarabanki Junction (4)X  23:28+2523:30+272m21-704.331122mNRPin-225001, Uttar Pradesh
8LKOLucknow Charbagh (9)X  00:25+3700:40+3415m42-675.861123mNR226004, Uttar Pradesh
9ONUnnao Junction (5)XO  01:34+3601:36+362m--2-621.227129mNRUnnao, Uttar Pradesh
10CNBKanpur Central (10)  02:15+3602:25+4110m42-603.833128mNCRKANPUR-208 001, Uttar Pradesh
11BZMBhimsen (1)  02:51+5202:53+542m12-589.772136mNCRKanpur, Uttar Pradesh
12PHNPokhrayan (2)  03:30+5703:32+582m12-545.360133mNCRPukhrayan, Uttar Pradesh
13KPIKalpi  03:47+1:0003:49+1:032m12-530.279114mNCRKalpi Orai(05162-252206), Uttar Pradesh
14ORAIOrai (3)  04:14+1:1204:21+1:117m22-497.582139mNCROrai(05162-252206), Uttar Pradesh
15AITAit Junction (2)X  04:39+1:1704:41+1:192m12-472.961154mNCROrai(05162-252206), Uttar Pradesh
16CGNChirgaonX  05:38+1:2805:40+1:312m12-415.322192mNCRChirgaon, Uttar Pradesh
17JHSJhansi Junction (7)07:05+5707:15+1:1010m12-383.555259mNCRJhansi, Uttar Pradesh
18BABBabina (3)  07:43+1:1407:45+1:142m12-358.086285mNCRBabina, Uttar Pradesh
19LARLalitpur (3)  08:30+1:2008:32+1:202m12-293.252373mNCRLalitpur, Uttar Pradesh
20BINABina Junction (4)X  09:45+1:1509:50+1:155m42-230.386414mWCRJn Pt - KATNI/GUNA/ BPL/JHS, Madhya Pradesh
21BAQGanj Basoda (4)  10:22+1:2910:24+1:312m22-184.584416mWCRVidisha, Madhya Pradesh
22BHSVidisha (3)X  10:52+1:4110:54+1:442m22-145.249432mWCRVidisha, Madhya Pradesh
23BPLBhopal Junction (6)X  12:00+1:3512:05+1:435m12-91.738497mWCRBhopal, Madhya Pradesh
24HBJBhopal HabibGanj (5)  12:15+1:4312:17+1:442m42-85.564496mWCRHabibGanj, Madhya Pradesh
25MDDPMandi Dip (1)  12:32+1:4512:34+1:462m12-69.464449mWCRMandideep, Madhya Pradesh
26HBDHoshangabad (2)  13:22+1:5813:24+1:582m--2-18.142308mWCRHoshangabad, Madhya Pradesh
27ET»Itarsi Junction (7)»  13:50+1:5613:55+2:035m220.064329mWCRItarsi 461111, Madhya Pradesh
28TBNTimarni (2)  14:53+1:5514:55+1:542m1261.761308mWCRTimarni, Madhya Pradesh
29HDHarda (3)  15:09+1:5315:10+1:541m3275.886289mWCRHarda, Madhya Pradesh
30KKNKhirkiya (2)X  15:32+1:5415:34+1:542m12107.345281mWCRSH 15, Madhya Pradesh
31KNW•Khandwa Junction (5)•X  17:15+1:1617:20+1:175m12183.478310mCRKhandwa, Madhya Pradesh
32NPNRNepanagar (2)  17:53+1:1917:55+1:212m--2226.168289mCRState Highway 27, Madhya Pradesh
33BAUBurhanpur (2)X  18:18+1:2818:20+1:292m12252.376269mCRBurhanpur, Madhya Pradesh
34RVRaver (2)X  18:36+1:2618:38+1:272m--2272.564242mCRJalgaon, Maharashtra
35BSLBhusaval Junction (8)X  19:10+1:3819:20+1:4110m32306.863208mCRBhusaval 425201, Maharashtra
36JLJalgaon Junction (4)X  19:43+1:4019:45+1:412m22330.992213mCRJalgaon 425001, Maharashtra
37PCPachora Junction (4)X  20:16+1:5620:18+1:572m--2378.654264mCRPachora 424201, Maharashtra
38CSNChalisgaon Junction (3)XO  21:08+1:4821:10+1:512m--2423.559352mCRChalisgaon 424101, Maharashtra
39NGNNandgaon (3)  21:53+1:4121:55+1:422m--2465.676476mCRNandgaon, Maharashtra
40MMRManmad Junction (6)XO  22:15+1:5122:20+1:565m32491.079580mCRManmad 423104, Maharashtra
41NKNasik Road (3)X  23:15+1:4923:20+1:485m32563.843563mCRNashik 422101, Maharashtra
42DVLDevlali (3)X  23:28+1:5123:30+1:512m22569.526561mCRDist. Nashik 422401, Maharashtra
43IGPIgatpuri (4)X  01:15+5701:20+1:065m--3614.445589mCRIgatpuri 422403, Maharashtra
44KYNKalyan Junction (8)O  03:10+1:0803:15+1:055m53696.26710mCRKalyan 421301, Maharashtra
45TNAThane (10)O  03:33+4703:35+462m83716.42210mCRThane, Maharashtra
46LTTMumbai Lokmanya Tilak Terminus (5)  04:20+1:00-53732.9-7mCRMumbai, Maharashtra
Scroll to Top
Scroll to Bottom